This demonstration page uses our WeatherBlox Daily Observations layout. Learn more.

41.86663, -103.66717

Hourly Observations for December 17, 2019

Temp ( °F °C ) Dew Point ( °F °C ) Humidity (%) Winds ( mph kmh ) Pressure ( in mb ) Visibility ( mi km ) Precip ( " mm )
12:53 am 00:53 Clear 6 -14.4 3 -16.1 87 87 NW 3 6 30.43 1031 10 16.0934 0 0
1:53 am 01:53 Clear 6 -14.4 3 -16.1 87 87 NW 5 7 30.43 1030 10 16.0934 0 0
2:53 am 02:53 Clear 6 -14.4 2 -16.7 83 83 NNW 7 11 30.41 1030 10 16.0934 0 0
3:53 am 03:53 Clear 6 -14.4 2 -16.7 83 83 NNW 7 11 30.4 1030 10 16.0934 0 0
4:53 am 04:53 Clear 8 -13.3 4 -15.6 83 83 NW 7 11 30.4 1030 10 16.0934 0 0
5:53 am 05:53 Clear 8 -13.3 3 -16.1 80 80 NW 5 7 30.42 1030 10 16.0934 0 0
6:53 am 06:53 Cloudy 12 -11.1 6 -14.4 77 77 NW 8 13 30.43 1031 10 16.0934 0 0
7:53 am 07:53 Mostly Cloudy 19 -7.2 11 -11.7 71 71 WNW 13 20 30.42 1030 10 16.0934 0 0
8:53 am 08:53 Partly Cloudy 22 -5.6 12 -11.1 66 66 WNW 8 13 30.45 1031 10 16.0934 0 0
9:53 am 09:53 Cloudy 28 -2.2 15 -9.4 58 58 WNW 16 26 30.45 1031 10 16.0934 0 0
10:53 am 10:53 Mostly Cloudy 31 -0.6 16 -8.9 54 54 WNW 18 30 30.42 1030 10 16.0934 0 0
11:53 am 11:53 Sunny 34 1.1 19 -7.2 54 54 W 18 30 30.4 1030 10 16.0934 0 0
12:53 pm 12:53 Sunny 35 1.7 18 -7.8 50 50 W 17 28 30.39 1029 10 16.0934 0 0
1:53 pm 13:53 Sunny 36 2.2 19 -7.2 50 50 WNW 21 33 30.37 1028 10 16.0934 0 0
2:53 pm 14:53 Sunny 35 1.7 19 -7.2 52 52 W 14 22 30.38 1029 10 16.0934 0 0
3:53 pm 15:53 Sunny 34 1.1 19 -7.2 54 54 W 12 19 30.39 1029 10 16.0934 0 0
4:53 pm 16:53 Clear 30 -1.1 17 -8.3 58 58 W 9 15 30.4 1029 10 16.0934 0 0
5:53 pm 17:53 Clear 28 -2.2 16 -8.9 60 60 WNW 9 15 30.4 1030 10 16.0934 0 0
6:53 pm 18:53 Clear 24 -4.4 15 -9.4 68 68 NNW 5 7 30.39 1029 10 16.0934 0 0
7:53 pm 19:53 Clear 22 -5.6 15 -9.4 75 75 NW 7 11 30.37 1028 10 16.0934 0 0
8:53 pm 20:53 Clear 21 -6.1 13 -10.6 71 71 NW 6 9 30.34 1027 10 16.0934 0 0
9:53 pm 21:53 Clear 23 -5 14 -10 68 68 WNW 6 9 30.3 1026 10 16.0934 0 0
10:53 pm 22:53 Clear 25 -3.9 15 -9.4 66 66 NW 8 13 30.27 1025 10 16.0934 0 0
11:53 pm 23:53 Clear 23 -5 14 -10 68 68 NW 6 9 30.25 1024 10 16.0934 0 0

Powered by AerisWeather